Terminal Aerodrome Forecast
Issued by NWS Rapid City, SD

Home | Current Version | Previous Version | Text Only | Print | Product List | Glossary On
Versions: 1 2 3 4 5 6 7 8 9 10 11 12 13 14 15 16 17 18 19 20 21 22
000
FTUS43 KUNR 300500
TAFRAP
TAF
KRAP 300520Z 3006/3106 VRB03KT P6SM SCT050
     FM301500 16015KT P6SM SCT250
     FM310000 15011KT P6SM SCT080 BKN150
     FM310400 24010KT P6SM SCT100 BKN200=

USA.gov is the U.S. government's official web portal to all federal, state and local government web resources and services.